createdAt,value
2022-10-23T00:00:54.064Z,96353.16
2022-10-23T00:04:05.201Z,96351.63
2022-10-23T00:07:06.797Z,96348.59
2022-10-23T00:10:10.226Z,96354.69
2022-10-23T00:13:11.765Z,96353.53
2022-10-23T00:16:13.460Z,96353.97
2022-10-23T00:19:15.315Z,96350.94
2022-10-23T00:22:16.861Z,96352.06
2022-10-23T00:25:18.625Z,96345.38
2022-10-23T00:28:20.153Z,96334.31
2022-10-23T00:31:23.365Z,96337.13
2022-10-23T00:34:24.910Z,96332.22
2022-10-23T00:37:26.408Z,96325.38
2022-10-23T00:40:28.121Z,96321.63
2022-10-23T00:43:31.302Z,96330.63
2022-10-23T00:46:34.460Z,96333.72
2022-10-23T00:49:38.342Z,96336.00
2022-10-23T00:52:47.153Z,96328.47
2022-10-23T00:55:53.125Z,96340.09
2022-10-23T00:58:54.670Z,96327.38
2022-10-23T01:01:56.675Z,96316.28
2022-10-23T01:04:58.323Z,96320.25
2022-10-23T01:08:10.448Z,96315.22
2022-10-23T01:11:42.366Z,96319.88
2022-10-23T01:14:54.888Z,96304.91
2022-10-23T01:18:11.986Z,96311.63
2022-10-23T01:21:34.833Z,96312.91
2022-10-23T01:25:08.133Z,96316.84
2022-10-23T01:28:12.430Z,96316.47
2022-10-23T01:31:40.905Z,96298.78
2022-10-23T01:34:45.360Z,96297.38
2022-10-23T01:37:52.189Z,96287.31
2022-10-23T01:41:02.158Z,96287.56
2022-10-23T01:44:16.240Z,96304.56
2022-10-23T01:47:22.808Z,96302.75
2022-10-23T01:50:32.254Z,96300.22
2022-10-23T01:53:42.260Z,96306.53
2022-10-23T01:56:51.197Z,96292.66
2022-10-23T02:00:03.576Z,96275.81
2022-10-23T02:03:08.553Z,96261.84
2022-10-23T02:06:10.332Z,96257.50
2022-10-23T02:09:12.015Z,96261.97
2022-10-23T02:12:23.339Z,96261.41
2022-10-23T02:15:36.569Z,96249.41
2022-10-23T02:19:00.816Z,96270.69
2022-10-23T02:22:26.326Z,96269.00
2022-10-23T02:25:33.314Z,96270.97
2022-10-23T02:28:46.413Z,96265.97
2022-10-23T02:31:48.040Z,96265.25
2022-10-23T02:34:53.032Z,96253.91
2022-10-23T02:37:56.621Z,96251.25
2022-10-23T02:41:07.077Z,96239.94
2022-10-23T02:44:38.978Z,96239.22
2022-10-23T02:47:52.305Z,96234.03
2022-10-23T02:51:05.444Z,96236.16
2022-10-23T02:54:18.823Z,96248.63
2022-10-23T02:57:35.053Z,96240.78
2022-10-23T03:00:42.672Z,96230.72
2022-10-23T03:03:53.805Z,96238.41
2022-10-23T03:06:56.375Z,96235.75
2022-10-23T03:09:57.943Z,96236.19
2022-10-23T03:12:59.668Z,96238.72
2022-10-23T03:16:04.278Z,96246.84
2022-10-23T03:19:05.849Z,96244.31
2022-10-23T03:22:07.577Z,96241.97
2022-10-23T03:25:10.260Z,96238.44
2022-10-23T03:28:11.870Z,96242.22
2022-10-23T03:31:13.570Z,96244.88
2022-10-23T03:34:15.116Z,96251.50
2022-10-23T03:37:17.489Z,96227.69
2022-10-23T03:40:19.052Z,96243.09
2022-10-23T03:43:20.622Z,96236.25
2022-10-23T03:46:22.453Z,96213.16
2022-10-23T03:49:28.196Z,96222.50
2022-10-23T03:52:37.542Z,96225.34
2022-10-23T03:55:39.121Z,96214.13
2022-10-23T03:58:40.680Z,96217.50
2022-10-23T04:01:42.330Z,96214.00
2022-10-23T04:04:44.034Z,96221.13
2022-10-23T04:07:45.567Z,96213.28
2022-10-23T04:10:47.168Z,96209.78
2022-10-23T04:13:49.015Z,96205.44
2022-10-23T04:16:50.554Z,96205.19
2022-10-23T04:19:52.126Z,96213.03
2022-10-23T04:22:54.022Z,96213.88
2022-10-23T04:25:58.216Z,96211.88
2022-10-23T04:29:00.750Z,96204.91
2022-10-23T04:32:04.289Z,96214.53
2022-10-23T04:35:06.768Z,96207.25
2022-10-23T04:38:08.404Z,96208.94
2022-10-23T04:41:10.067Z,96196.47
2022-10-23T04:44:11.607Z,96204.47
2022-10-23T04:47:13.641Z,96207.25
2022-10-23T04:50:28.397Z,96201.66
2022-10-23T04:53:44.170Z,96198.03
2022-10-23T04:57:09.017Z,96186.38
2022-10-23T05:00:28.226Z,96175.59
2022-10-23T05:03:31.858Z,96180.78
2022-10-23T05:06:34.107Z,96176.28
2022-10-23T05:10:08.391Z,96164.94
2022-10-23T05:13:20.014Z,96172.09
2022-10-23T05:16:53.920Z,96181.06
2022-10-23T05:19:57.856Z,96183.19
2022-10-23T05:23:00.669Z,96178.72
2022-10-23T05:26:04.180Z,96178.31
2022-10-23T05:29:07.021Z,96188.09
2022-10-23T05:32:12.048Z,96186.69
2022-10-23T05:35:19.121Z,96200.00
2022-10-23T05:38:23.387Z,96194.13
2022-10-23T05:41:25.207Z,96191.63
2022-10-23T05:44:31.006Z,96205.88
2022-10-23T05:47:46.971Z,96195.13
2022-10-23T05:51:22.945Z,96192.59
2022-10-23T05:54:33.098Z,96181.13
2022-10-23T05:57:50.830Z,96172.44
2022-10-23T06:00:59.194Z,96168.41
2022-10-23T06:04:34.754Z,96172.44
2022-10-23T06:08:01.231Z,96179.03
2022-10-23T06:11:11.955Z,96192.19
2022-10-23T06:14:13.780Z,96190.50
2022-10-23T06:17:16.497Z,96200.31
2022-10-23T06:20:21.056Z,96199.34
2022-10-23T06:23:36.894Z,96195.84
2022-10-23T06:26:58.454Z,96192.19
2022-10-23T06:30:14.753Z,96195.53
2022-10-23T06:33:16.925Z,96190.91
2022-10-23T06:36:18.855Z,96196.09
2022-10-23T06:39:22.107Z,96194.97
2022-10-23T06:42:33.667Z,96197.19
2022-10-23T06:45:55.310Z,96211.88
2022-10-23T06:49:22.577Z,96205.44
2022-10-23T06:52:42.106Z,96198.84
2022-10-23T06:55:51.393Z,96210.75
2022-10-23T06:58:57.347Z,96210.31
2022-10-23T07:01:58.910Z,96196.28
2022-10-23T07:05:01.152Z,96196.66
2022-10-23T07:08:06.730Z,96193.13
2022-10-23T07:11:14.651Z,96191.13
2022-10-23T07:14:18.394Z,96194.44
2022-10-23T07:17:19.918Z,96196.88
2022-10-23T07:20:22.171Z,96187.34
2022-10-23T07:23:24.975Z,96192.63
2022-10-23T07:26:27.656Z,96187.53
2022-10-23T07:29:29.317Z,96186.66
2022-10-23T07:32:31.473Z,96185.28
2022-10-23T07:35:51.752Z,96173.41
2022-10-23T07:38:59.520Z,96172.50
2022-10-23T07:42:01.597Z,96170.41
2022-10-23T07:45:04.444Z,96175.19
2022-10-23T07:48:06.154Z,96176.44
2022-10-23T07:51:25.697Z,96181.50
2022-10-23T07:54:33.308Z,96179.41
2022-10-23T07:57:40.653Z,96174.78
2022-10-23T08:00:55.667Z,96182.38
2022-10-23T08:04:04.944Z,96173.59
2022-10-23T08:07:07.156Z,96172.47
2022-10-23T08:10:14.530Z,96185.56
2022-10-23T08:13:20.411Z,96184.56
2022-10-23T08:16:27.749Z,96172.09
2022-10-23T08:19:38.340Z,96163.25
2022-10-23T08:22:40.302Z,96161.44
2022-10-23T08:25:42.864Z,96162.94
2022-10-23T08:28:45.523Z,96164.81
2022-10-23T08:31:47.273Z,96157.31
2022-10-23T08:34:49.095Z,96154.66
2022-10-23T08:37:51.578Z,96153.00
2022-10-23T08:40:53.860Z,96149.97
2022-10-23T08:44:52.553Z,96145.31
2022-10-23T08:47:59.925Z,96149.81
2022-10-23T08:51:58.920Z,96143.94
2022-10-23T08:55:15.853Z,96136.72
2022-10-23T08:58:39.032Z,96126.81
2022-10-23T09:01:42.019Z,96119.00
2022-10-23T09:04:47.426Z,96119.63
2022-10-23T09:08:00.978Z,96110.72
2022-10-23T09:11:24.302Z,96107.03
2022-10-23T09:14:54.965Z,96094.59
2022-10-23T09:18:06.648Z,96095.88
2022-10-23T09:21:10.711Z,96113.75
2022-10-23T09:24:17.842Z,96108.91
2022-10-23T09:27:19.389Z,96117.06
2022-10-23T09:30:39.945Z,96119.88
2022-10-23T09:33:41.621Z,96117.84
2022-10-23T09:36:49.932Z,96113.50
2022-10-23T09:40:04.274Z,96117.47
2022-10-23T09:43:15.531Z,96104.72
2022-10-23T09:46:17.129Z,96108.00
2022-10-23T09:49:31.673Z,96113.97
2022-10-23T09:52:37.358Z,96110.22
2022-10-23T09:55:39.409Z,96110.13
2022-10-23T09:58:54.885Z,96094.03
2022-10-23T10:02:05.970Z,96100.84
2022-10-23T10:05:34.001Z,96103.13
2022-10-23T10:08:47.690Z,96096.00
2022-10-23T10:11:55.378Z,96088.44
2022-10-23T10:15:32.158Z,96095.41
2022-10-23T10:18:40.548Z,96085.22
2022-10-23T10:21:58.550Z,96090.69
2022-10-23T10:25:09.563Z,96088.31
2022-10-23T10:28:26.472Z,96089.88
2022-10-23T10:31:38.900Z,96083.78
2022-10-23T10:34:54.430Z,96070.25
2022-10-23T10:38:14.576Z,96076.34
2022-10-23T10:41:25.279Z,96067.38
2022-10-23T10:44:50.178Z,96060.03
2022-10-23T10:48:14.982Z,96051.88
2022-10-23T10:51:35.018Z,96055.91
2022-10-23T10:54:52.952Z,96045.91
2022-10-23T10:58:15.793Z,96051.84
2022-10-23T11:01:26.744Z,96042.00
2022-10-23T11:04:36.931Z,96037.34
2022-10-23T11:07:44.538Z,96017.91
2022-10-23T11:10:51.900Z,96029.81
2022-10-23T11:13:53.970Z,96029.88
2022-10-23T11:17:18.953Z,96018.16
2022-10-23T11:20:48.091Z,96016.81
2022-10-23T11:24:07.725Z,96010.44
2022-10-23T11:27:26.101Z,96013.63
2022-10-23T11:31:17.111Z,96010.59
2022-10-23T11:34:43.675Z,96006.31
2022-10-23T11:37:45.525Z,95994.56
2022-10-23T11:44:04.605Z,95985.56
2022-10-23T11:47:40.162Z,95986.03
2022-10-23T11:50:45.238Z,95992.72
2022-10-23T11:53:46.750Z,95988.19
2022-10-23T11:57:10.433Z,95991.56
2022-10-23T12:00:22.167Z,95991.00
2022-10-23T12:03:29.435Z,95974.84
2022-10-23T12:06:41.635Z,95974.03
2022-10-23T12:10:04.590Z,95968.66
2022-10-23T12:13:44.890Z,95973.03
2022-10-23T12:16:46.455Z,95963.06
2022-10-23T12:20:04.044Z,95948.75
2022-10-23T12:23:08.419Z,95953.34
2022-10-23T12:26:20.649Z,95957.97
2022-10-23T12:29:48.404Z,95948.19
2022-10-23T12:33:04.534Z,95936.97
2022-10-23T12:36:16.995Z,95939.91
2022-10-23T12:39:25.358Z,95940.09
2022-10-23T12:42:29.387Z,95928.47
2022-10-23T12:45:36.961Z,95931.97
2022-10-23T12:48:48.488Z,95929.06
2022-10-23T12:51:58.298Z,95919.72
2022-10-23T12:55:00.054Z,95928.19
2022-10-23T12:58:01.596Z,95919.91
2022-10-23T13:01:05.319Z,95928.41
2022-10-23T13:04:26.429Z,95921.53
2022-10-23T13:07:30.529Z,95916.53
2022-10-23T13:10:35.122Z,95912.34
2022-10-23T13:13:41.454Z,95909.00
2022-10-23T13:16:43.002Z,95898.81
2022-10-23T13:19:49.398Z,95898.22
2022-10-23T13:23:00.631Z,95893.00
2022-10-23T13:26:23.372Z,95901.09
2022-10-23T13:29:28.828Z,95886.09
2022-10-23T13:32:30.501Z,95889.19
2022-10-23T13:35:32.159Z,95886.88
2022-10-23T13:38:36.577Z,95886.25
2022-10-23T13:41:44.330Z,95886.84
2022-10-23T13:44:46.218Z,95885.22
2022-10-23T13:47:47.869Z,95888.50
2022-10-23T13:50:49.450Z,95891.22
2022-10-23T13:53:51.518Z,95883.09
2022-10-23T13:56:54.920Z,95890.38
2022-10-23T13:59:56.447Z,95892.88
2022-10-23T14:02:58.006Z,95890.38
2022-10-23T14:06:00.436Z,95875.84
2022-10-23T14:09:02.335Z,95882.50
2022-10-23T14:12:04.026Z,95874.59
2022-10-23T14:15:06.447Z,95873.78
2022-10-23T14:18:08.469Z,95875.84
2022-10-23T14:21:13.645Z,95877.13
2022-10-23T14:24:15.200Z,95882.75
2022-10-23T14:27:16.732Z,95882.13
2022-10-23T14:30:18.237Z,95871.97
2022-10-23T14:33:19.729Z,95879.25
2022-10-23T14:36:21.722Z,95870.72
2022-10-23T14:39:24.109Z,95878.22
2022-10-23T14:42:27.625Z,95872.00
2022-10-23T14:45:32.112Z,95869.94
2022-10-23T14:48:37.592Z,95872.25
2022-10-23T14:51:39.104Z,95880.94
2022-10-23T14:54:41.633Z,95872.84
2022-10-23T14:57:43.497Z,95875.16
2022-10-23T15:00:45.269Z,95872.06
2022-10-23T15:03:46.861Z,95874.78
2022-10-23T15:06:48.534Z,95873.94
2022-10-23T15:09:51.842Z,95866.69
2022-10-23T15:12:53.347Z,95875.84
2022-10-23T15:16:05.737Z,95867.97
2022-10-23T15:19:12.116Z,95861.97
2022-10-23T15:22:16.968Z,95856.97
2022-10-23T15:25:18.574Z,95854.06
2022-10-23T15:28:20.858Z,95851.34
2022-10-23T15:31:37.775Z,95839.69
2022-10-23T15:34:42.633Z,95825.78
2022-10-23T15:37:44.392Z,95829.53
2022-10-23T15:40:46.425Z,95831.00
2022-10-23T15:43:47.945Z,95829.53
2022-10-23T15:46:49.968Z,95830.19
2022-10-23T15:49:51.502Z,95828.13
2022-10-23T15:52:53.359Z,95823.16
2022-10-23T15:55:55.887Z,95839.38
2022-10-23T15:58:57.544Z,95838.97
2022-10-23T16:01:59.464Z,95829.84
2022-10-23T16:05:01.175Z,95828.38
2022-10-23T16:08:02.741Z,95838.75
2022-10-23T16:11:11.907Z,95823.81
2022-10-23T16:14:16.136Z,95831.06
2022-10-23T16:17:19.393Z,95837.09
2022-10-23T16:20:21.132Z,95823.81
2022-10-23T16:23:22.798Z,95823.38
2022-10-23T16:26:25.426Z,95819.84
2022-10-23T16:29:29.366Z,95826.91
2022-10-23T16:32:31.049Z,95824.38
2022-10-23T16:35:32.570Z,95819.00
2022-10-23T16:38:43.438Z,95809.22
2022-10-23T16:41:45.381Z,95809.84
2022-10-23T16:44:52.310Z,95797.41
2022-10-23T16:47:53.849Z,95809.81
2022-10-23T16:50:55.660Z,95804.81
2022-10-23T16:53:57.974Z,95812.88
2022-10-23T16:56:59.562Z,95817.19
2022-10-23T17:00:01.131Z,95828.53
2022-10-23T17:03:04.363Z,95846.53
2022-10-23T17:06:08.942Z,95852.09
2022-10-23T17:09:12.734Z,95858.94
2022-10-23T17:12:15.302Z,95859.72
2022-10-23T17:15:17.509Z,95883.31
2022-10-23T17:18:19.012Z,95892.00
2022-10-23T17:21:21.994Z,95899.25
2022-10-23T17:24:24.069Z,95907.31
2022-10-23T17:27:25.592Z,95918.91
2022-10-23T17:30:27.120Z,95916.41
2022-10-23T17:33:28.617Z,95922.63
2022-10-23T17:36:32.357Z,95901.75
2022-10-23T17:39:33.934Z,95904.81
2022-10-23T17:42:35.493Z,95897.56
2022-10-23T17:45:37.126Z,95872.88
2022-10-23T17:48:40.302Z,95870.84
2022-10-23T17:51:42.020Z,95902.31
2022-10-23T17:54:43.648Z,95914.53
2022-10-23T17:57:45.481Z,95924.03
2022-10-23T18:00:47.302Z,95895.69
2022-10-23T18:03:48.856Z,95902.72
2022-10-23T18:06:53.108Z,95911.81
2022-10-23T18:09:54.723Z,95908.69
2022-10-23T18:12:56.413Z,95903.25
2022-10-23T18:16:06.363Z,95882.13
2022-10-23T18:19:08.668Z,95892.44
2022-10-23T18:22:10.260Z,95888.50
2022-10-23T18:25:11.942Z,95878.94
2022-10-23T18:28:13.451Z,95878.72
2022-10-23T18:31:16.638Z,95868.31
2022-10-23T18:34:21.376Z,95879.03
2022-10-23T18:37:23.377Z,95857.47
2022-10-23T18:40:27.862Z,95855.16
2022-10-23T18:43:43.239Z,95851.22
2022-10-23T18:46:46.357Z,95836.44
2022-10-23T18:49:47.909Z,95839.56
2022-10-23T18:52:49.527Z,95832.09
2022-10-23T18:55:51.124Z,95833.97
2022-10-23T18:59:03.769Z,95842.38
2022-10-23T19:02:05.467Z,95839.88
2022-10-23T19:05:08.059Z,95838.41
2022-10-23T19:08:09.836Z,95838.59
2022-10-23T19:11:13.201Z,95840.66
2022-10-23T19:14:14.777Z,95845.38
2022-10-23T19:17:19.608Z,95842.69
2022-10-23T19:20:22.261Z,95848.91
2022-10-23T19:23:24.860Z,95850.97
2022-10-23T19:26:27.168Z,95869.56
2022-10-23T19:29:29.566Z,95857.38
2022-10-23T19:32:31.077Z,95855.13
2022-10-23T19:35:32.582Z,95877.63
2022-10-23T19:38:35.004Z,95879.31
2022-10-23T19:41:36.520Z,95895.06
2022-10-23T19:44:38.090Z,95887.84
2022-10-23T19:47:40.563Z,95882.88
2022-10-23T19:50:43.166Z,95886.41
2022-10-23T19:53:44.858Z,95896.16
2022-10-23T19:56:46.781Z,95907.91
2022-10-23T19:59:52.021Z,95896.34
2022-10-23T20:02:55.347Z,95895.50
2022-10-23T20:05:57.043Z,95897.56
2022-10-23T20:08:58.571Z,95899.03
2022-10-23T20:12:00.745Z,95901.94
2022-10-23T20:15:02.322Z,95919.28
2022-10-23T20:18:05.158Z,95924.66
2022-10-23T20:21:06.652Z,95948.66
2022-10-23T20:24:10.946Z,95955.00
2022-10-23T20:27:15.137Z,95988.34
2022-10-23T20:30:16.727Z,95993.06
2022-10-23T20:33:18.252Z,96005.66
2022-10-23T20:36:30.398Z,95994.91
2022-10-23T20:39:35.557Z,96002.97
2022-10-23T20:42:37.069Z,96013.94
2022-10-23T20:45:38.603Z,96018.03
2022-10-23T20:48:42.036Z,96029.88
2022-10-23T20:51:45.039Z,96039.78
2022-10-23T20:54:46.579Z,96038.94
2022-10-23T20:57:48.161Z,96031.66
2022-10-23T21:00:49.844Z,96029.44
2022-10-23T21:03:53.309Z,96031.94
2022-10-23T21:07:12.812Z,96028.19
2022-10-23T21:10:14.456Z,96015.81
2022-10-23T21:13:15.992Z,96020.13
2022-10-23T21:16:17.454Z,96016.63
2022-10-23T21:19:18.999Z,96020.13
2022-10-23T21:22:20.518Z,96015.81
2022-10-23T21:25:22.056Z,96017.84
2022-10-23T21:28:23.648Z,96034.63
2022-10-23T21:31:25.632Z,96033.78
2022-10-23T21:34:27.819Z,96044.72
2022-10-23T21:37:29.521Z,96045.75
2022-10-23T21:40:31.202Z,96051.97
2022-10-23T21:43:32.820Z,96044.06
2022-10-23T21:46:35.587Z,96059.19
2022-10-23T21:49:37.236Z,96063.38
2022-10-23T21:52:38.881Z,96072.06
2022-10-23T21:55:40.458Z,96077.81
2022-10-23T21:58:42.002Z,96089.94
2022-10-23T22:01:45.485Z,96099.16
2022-10-23T22:04:47.131Z,96115.56
2022-10-23T22:07:48.746Z,96120.34
2022-10-23T22:10:50.255Z,96127.03
2022-10-23T22:13:51.808Z,96120.63
2022-10-23T22:16:54.178Z,96108.28
2022-10-23T22:19:55.747Z,96099.56
2022-10-23T22:22:57.298Z,96104.59
2022-10-23T22:25:59.051Z,96121.81
2022-10-23T22:29:07.296Z,96128.66
2022-10-23T22:32:08.874Z,96140.31
2022-10-23T22:35:10.409Z,96145.41
2022-10-23T22:38:11.993Z,96143.81
2022-10-23T22:41:13.760Z,96145.56
2022-10-23T22:44:15.789Z,96148.97
2022-10-23T22:47:17.531Z,96163.44
2022-10-23T22:50:19.301Z,96170.50
2022-10-23T22:53:20.878Z,96166.78
2022-10-23T22:56:24.562Z,96176.97
2022-10-23T22:59:26.130Z,96183.84
2022-10-23T23:02:27.674Z,96178.09
2022-10-23T23:05:29.209Z,96182.72
2022-10-23T23:08:31.040Z,96191.41
2022-10-23T23:11:40.778Z,96183.41
2022-10-23T23:14:53.077Z,96186.78
2022-10-23T23:17:54.642Z,96186.66
2022-10-23T23:21:04.415Z,96186.31
2022-10-23T23:24:06.012Z,96196.31
2022-10-23T23:27:07.585Z,96190.94
2022-10-23T23:30:09.720Z,96168.91
2022-10-23T23:33:13.073Z,96177.41
2022-10-23T23:36:18.735Z,96160.44
2022-10-23T23:39:20.256Z,96161.66
2022-10-23T23:42:21.837Z,96157.03
2022-10-23T23:45:23.433Z,96143.09
2022-10-23T23:48:25.876Z,96139.50
2022-10-23T23:51:27.410Z,96142.31
2022-10-23T23:54:28.943Z,96131.66
2022-10-23T23:57:30.575Z,96107.38
